Terminal Aerodrome Forecast
Issued by NWS Flagstaff, AZ

Home | Current Version | Previous Version | Text Only | Print | Product List | Glossary On
Versions: 1 2 3 4 5 6 7 8 9 10 11 12 13 14 15 16 17 18 19 20 21
000
FTUS45 KFGZ 241125
TAFFLG
TAF
KFLG 241125Z 2412/2512 VRB05KT P6SM SCT100
     FM241900 23008KT P6SM VCTS SCT080CB BKN100
      TEMPO 2419/2423 VRB15G25KT 2SM TSRA BKN060CB
     FM250100 VRB05KT P6SM VCSH SCT080 BKN110
     FM250300 VRB05KT P6SM SCT110=

USA.gov is the U.S. government's official web portal to all federal, state and local government web resources and services.